TimeCST,TemperatureF,Dew PointF,Humidity,Sea Level PressureIn,VisibilityMPH,Wind Direction,Wind SpeedMPH,Gust SpeedMPH,PrecipitationIn,Events,Conditions,WindDirDegrees,DateUTC
12:55 AM,10.9,9.0,92,30.52,10.0,Calm,Calm,-,N/A,,Clear,0,2012-11-16 06:55:00
1:55 AM,10.9,9.0,92,30.53,10.0,Calm,Calm,-,N/A,,Clear,0,2012-11-16 07:55:00
2:55 AM,12.0,9.0,88,30.52,10.0,ESE,3.5,-,N/A,,Clear,110,2012-11-16 08:55:00
3:55 AM,12.0,8.1,84,30.50,10.0,SSE,3.5,-,N/A,,Clear,150,2012-11-16 09:55:00
4:55 AM,10.9,8.1,88,30.50,10.0,SSE,3.5,-,N/A,,Clear,150,2012-11-16 10:55:00
5:55 AM,12.0,9.0,88,30.49,10.0,SSE,5.8,-,N/A,,Clear,150,2012-11-16 11:55:00
6:55 AM,12.9,9.0,84,30.49,10.0,SSE,4.6,-,N/A,,Clear,150,2012-11-16 12:55:00
7:55 AM,15.1,10.9,84,30.49,10.0,SE,4.6,-,N/A,,Clear,140,2012-11-16 13:55:00
8:55 AM,19.0,14.0,81,30.48,10.0,SE,5.8,-,N/A,,Clear,140,2012-11-16 14:55:00
9:55 AM,24.1,16.0,71,30.50,10.0,Variable,3.5,-,N/A,,Clear,0,2012-11-16 15:55:00
10:55 AM,28.9,14.0,54,30.48,10.0,Variable,3.5,-,N/A,,Clear,0,2012-11-16 16:55:00
11:55 AM,33.1,12.0,42,30.45,10.0,Variable,6.9,-,N/A,,Clear,0,2012-11-16 17:55:00
12:55 PM,36.0,10.9,36,30.41,10.0,Variable,5.8,-,N/A,,Clear,0,2012-11-16 18:55:00
1:55 PM,37.9,10.9,33,30.38,10.0,SSE,6.9,-,N/A,,Clear,160,2012-11-16 19:55:00
2:55 PM,37.9,12.0,35,30.36,10.0,Variable,6.9,-,N/A,,Clear,0,2012-11-16 20:55:00
3:55 PM,37.0,12.9,37,30.35,10.0,SSE,8.1,-,N/A,,Unknown,150,2012-11-16 21:55:00
4:55 PM,34.0,14.0,44,30.33,10.0,SE,8.1,-,N/A,,Clear,140,2012-11-16 22:55:00
5:55 PM,33.1,17.1,52,30.31,10.0,SSE,8.1,-,N/A,,Clear,150,2012-11-16 23:55:00
6:55 PM,32.0,18.0,56,30.30,10.0,SSE,6.9,-,N/A,,Clear,150,2012-11-17 00:55:00
7:55 PM,33.1,18.0,54,30.29,10.0,SSE,8.1,-,N/A,,Clear,160,2012-11-17 01:55:00
8:55 PM,32.0,17.1,54,30.29,10.0,SSE,6.9,-,N/A,,Mostly Cloudy,150,2012-11-17 02:55:00
9:55 PM,33.1,19.0,56,30.27,10.0,SSE,11.5,-,N/A,,Overcast,150,2012-11-17 03:55:00
10:55 PM,32.0,19.0,59,30.26,10.0,SSE,9.2,-,N/A,,Scattered Clouds,160,2012-11-17 04:55:00
11:55 PM,30.9,19.9,64,30.25,10.0,SSE,5.8,-,N/A,,Clear,150,2012-11-17 05:55:00